Туризм
Свали.ру
Погода в мире
ИА "Метеоновости"
Информеры
для сайтов
Туры
поиск и заказ
Авиабилеты
регулярные и чартерные рейсы
 
    На главную   Табло рисков задержки   Авиабилеты   Расписание авиарейсов

Konarak Airport    ICAO или ID: OIZC, IATA: ZBR
Небольшой аэропорт, регулярные рейсы
добавить в избранное


широта:
долгота:
высота над уровнем моря:
25°27'
60°23'

13 м
Страна: Иран (Iran)
погода
климат
описание
туры
отели
аэропорты
Риск задержки рейсов из-за погоды
Факт:  
Прогноз:  
 Карта
 



Текущее время 20:53 UTC 29-05-2024
Солнце: восход 01:08, заход 14:44, долгота дня 13:35

  06:00 (на 30ч) 12:00 (на 30ч) [18:00 (на 30ч)]

Прогноз погоды на 30 ч. с 18:00 29-05-2024 по 00:00 30-11-1999 UTC


Исходная телеграмма в коде TAF
OIZC 291730Z 2918/3024 21007KT 7000 NSC
BECMG 2920/2922 4000 BR
TEMPO 2923/3004 1500 BR
BECMG 3005/3007 7000
TEMPO 3006/3012 21017KT

Раскодировка телеграмм производится в автоматическом режиме, в телеграммах могут содержаться ошибки, приводящие к их неправильной интерпретации.

Предупреждение: данные на этом сайте не могут быть использованы для планирования полётов и предоставляются только в информационных целях.
Найти аэропорт
По названию или городу
только регулярные рейсы

Избранные аэропорты
Список пуст



© 2008 Данио-Пресс. Все права защищены.
Использование материалов сайта возможно только с согласия администрации сервера.
По вопросам рекламы и размещения информации обращаться сюда.


 Рейтинг@Mail.ru  Rambler's Top100